createdAt,value
2022-09-16T00:07:55.635Z,12.70
2022-09-16T00:10:23.592Z,12.70
2022-09-16T00:42:19.183Z,12.60
2022-09-16T00:45:04.818Z,12.70
2022-09-16T00:47:47.261Z,12.80
2022-09-16T00:50:41.950Z,12.50
2022-09-16T00:53:15.238Z,12.70
2022-09-16T00:55:43.719Z,12.70
2022-09-16T00:58:26.627Z,12.70
2022-09-16T01:03:21.167Z,12.70
2022-09-16T01:10:43.552Z,12.60
2022-09-16T01:13:13.196Z,12.60
2022-09-16T01:18:33.407Z,12.60
2022-09-16T01:23:41.930Z,12.60
2022-09-16T01:26:33.608Z,12.80
2022-09-16T01:29:21.612Z,12.50
2022-09-16T01:32:10.016Z,12.50
2022-09-16T01:35:04.816Z,12.30
2022-09-16T01:37:49.505Z,12.70
2022-09-16T01:40:30.917Z,12.30
2022-09-16T01:43:20.023Z,12.30
2022-09-16T01:48:31.083Z,12.40
2022-09-16T01:51:21.575Z,12.30
2022-09-16T01:54:07.190Z,12.30
2022-09-16T01:56:44.821Z,12.20
2022-09-16T01:59:33.144Z,12.20
2022-09-16T02:02:18.100Z,12.30
2022-09-16T02:04:54.253Z,12.20
2022-09-16T02:07:25.831Z,12.20
2022-09-16T02:09:57.514Z,12.20
2022-09-16T02:12:29.794Z,12.20
2022-09-16T02:15:03.934Z,12.10
2022-09-16T02:17:34.060Z,12.10
2022-09-16T02:20:09.311Z,12.20
2022-09-16T02:22:47.045Z,12.20
2022-09-16T02:25:16.198Z,12.20
2022-09-16T02:27:45.826Z,12.20
2022-09-16T02:30:18.553Z,12.20
2022-09-16T02:32:49.012Z,12.20
2022-09-16T02:35:19.138Z,12.20
2022-09-16T02:37:53.409Z,12.20
2022-09-16T02:40:25.740Z,12.20
2022-09-16T02:45:26.022Z,12.30
2022-09-16T02:50:40.328Z,12.20
2022-09-16T02:53:25.264Z,12.30
2022-09-16T02:56:09.543Z,12.30
2022-09-16T03:06:21.412Z,12.30
2022-09-16T03:08:49.830Z,12.30
2022-09-16T03:11:35.195Z,12.30
2022-09-16T03:16:46.062Z,12.30
2022-09-16T03:22:02.809Z,12.20
2022-09-16T03:24:41.430Z,12.40
2022-09-16T03:27:32.431Z,12.40
2022-09-16T03:30:07.864Z,12.40
2022-09-16T03:32:57.901Z,12.40
2022-09-16T03:35:40.106Z,12.40
2022-09-16T03:38:08.342Z,12.30
2022-09-16T03:40:36.350Z,12.30
2022-09-16T03:43:11.953Z,12.30
2022-09-16T04:20:04.896Z,12.30
2022-09-16T05:04:17.376Z,12.60
2022-09-16T05:09:12.555Z,12.50
2022-09-16T05:11:41.040Z,12.50
2022-09-16T05:14:10.849Z,12.50
2022-09-16T05:21:35.038Z,12.60
2022-09-16T05:24:03.943Z,12.50
2022-09-16T05:26:32.713Z,12.50
2022-09-16T05:29:08.578Z,12.50
2022-09-16T05:31:37.672Z,12.50
2022-09-16T05:34:07.512Z,12.50
2022-09-16T05:36:39.152Z,12.50
2022-09-16T05:39:24.123Z,12.60
2022-09-16T05:41:57.802Z,12.60
2022-09-16T05:44:26.171Z,12.60
2022-09-16T05:51:49.213Z,12.60
2022-09-16T05:59:14.430Z,12.80
2022-09-16T06:04:12.170Z,13.00
2022-09-16T06:06:41.384Z,13.00
2022-09-16T06:09:11.574Z,13.00
2022-09-16T06:11:41.786Z,12.90
2022-09-16T06:19:06.336Z,13.00
2022-09-16T06:26:28.503Z,12.90
2022-09-16T06:28:55.879Z,13.10
2022-09-16T06:31:27.996Z,13.10
2022-09-16T06:33:55.681Z,13.10
2022-09-16T06:36:25.353Z,13.10
2022-09-16T06:41:20.988Z,13.10
2022-09-16T06:43:49.177Z,13.20
2022-09-16T06:46:18.460Z,13.20
2022-09-16T06:48:47.569Z,13.30
2022-09-16T06:51:17.434Z,13.30
2022-09-16T06:56:14.361Z,13.40
2022-09-16T06:58:43.339Z,13.40
2022-09-16T07:01:15.846Z,13.50
2022-09-16T07:03:45.384Z,13.40
2022-09-16T07:06:14.494Z,13.40
2022-09-16T07:11:20.564Z,13.50
2022-09-16T07:13:48.600Z,13.60
2022-09-16T07:16:21.187Z,13.60
2022-09-16T07:21:18.470Z,13.70
2022-09-16T07:23:46.204Z,13.70
2022-09-16T07:26:14.444Z,13.70
2022-09-16T07:28:42.605Z,13.70
2022-09-16T07:31:11.968Z,13.80
2022-09-16T07:33:40.395Z,13.90
2022-09-16T07:36:09.598Z,13.80
2022-09-16T07:41:12.084Z,13.80
2022-09-16T07:43:40.397Z,13.80
2022-09-16T07:46:08.705Z,13.80
2022-09-16T07:51:06.066Z,13.80
2022-09-16T07:56:05.660Z,13.80
2022-09-16T08:03:32.578Z,13.70
2022-09-16T08:06:05.851Z,13.80
2022-09-16T08:11:01.435Z,13.80
2022-09-16T08:13:30.347Z,13.80
2022-09-16T08:16:05.010Z,13.80
2022-09-16T08:25:59.161Z,14.20
2022-09-16T08:28:35.793Z,14.10
2022-09-16T08:33:40.720Z,14.20
2022-09-16T08:36:16.426Z,14.20
2022-09-16T08:38:44.543Z,14.20
2022-09-16T08:41:26.100Z,14.10
2022-09-16T08:44:19.487Z,14.10
2022-09-16T08:49:40.015Z,14.00
2022-09-16T08:52:32.766Z,14.10
2022-09-16T08:55:11.818Z,13.80
2022-09-16T08:57:46.032Z,14.00
2022-09-16T09:00:20.079Z,13.80
2022-09-16T09:02:57.922Z,14.10
2022-09-16T09:05:41.886Z,14.70
2022-09-16T09:08:32.967Z,14.00
2022-09-16T09:16:15.414Z,14.00
2022-09-16T09:18:52.741Z,13.80
2022-09-16T09:21:45.740Z,14.10
2022-09-16T09:29:29.796Z,14.00
2022-09-16T09:32:05.401Z,14.00
2022-09-16T09:34:42.464Z,14.00
2022-09-16T09:37:33.162Z,14.10
2022-09-16T09:40:19.387Z,14.00
2022-09-16T09:43:01.617Z,13.90
2022-09-16T09:45:35.621Z,14.00
2022-09-16T09:48:23.329Z,14.30
2022-09-16T09:50:51.840Z,14.00
2022-09-16T09:53:43.340Z,14.00
2022-09-16T09:56:18.906Z,14.70
2022-09-16T09:58:58.364Z,14.40
2022-09-16T10:03:57.415Z,14.30
2022-09-16T10:06:33.288Z,14.30
2022-09-16T10:11:31.198Z,14.20
2022-09-16T10:14:02.425Z,14.20
2022-09-16T10:16:33.529Z,14.10
2022-09-16T10:19:17.945Z,14.20
2022-09-16T10:21:53.289Z,13.90
2022-09-16T10:24:54.816Z,14.20
2022-09-16T10:27:28.411Z,14.30
2022-09-16T10:30:15.418Z,14.40
2022-09-16T10:32:45.268Z,14.30
2022-09-16T10:35:20.224Z,14.30
2022-09-16T10:37:59.467Z,14.30
2022-09-16T10:40:27.607Z,14.30
2022-09-16T10:42:58.868Z,14.30
2022-09-16T10:45:37.249Z,14.30
2022-09-16T10:48:13.013Z,14.30
2022-09-16T10:53:29.874Z,14.30
2022-09-16T10:55:58.816Z,14.30
2022-09-16T11:01:02.418Z,14.00
2022-09-16T11:04:05.647Z,14.20
2022-09-16T11:06:41.327Z,14.10
2022-09-16T11:09:17.767Z,14.00
2022-09-16T11:12:22.500Z,14.20
2022-09-16T11:15:16.892Z,14.10
2022-09-16T11:17:51.167Z,14.00
2022-09-16T11:21:01.859Z,14.00
2022-09-16T11:23:56.367Z,14.20
2022-09-16T11:29:11.446Z,13.90
2022-09-16T11:31:59.611Z,14.00
2022-09-16T11:34:32.829Z,14.10
2022-09-16T11:37:31.899Z,14.00
2022-09-16T11:40:15.563Z,14.10
2022-09-16T11:43:09.529Z,14.10
2022-09-16T11:45:43.714Z,14.10
2022-09-16T11:48:16.244Z,14.10
2022-09-16T11:51:15.220Z,14.10
2022-09-16T11:54:18.455Z,14.10
2022-09-16T11:56:52.278Z,14.10
2022-09-16T11:59:26.638Z,14.10
2022-09-16T12:02:24.899Z,14.10
2022-09-16T12:04:58.650Z,14.00
2022-09-16T12:07:39.705Z,13.90
2022-09-16T12:10:21.665Z,14.00
2022-09-16T12:13:09.946Z,14.00
2022-09-16T12:15:46.219Z,13.90
2022-09-16T12:18:19.160Z,13.90
2022-09-16T12:20:50.600Z,14.00
2022-09-16T12:23:27.808Z,13.90
2022-09-16T12:26:12.397Z,14.10
2022-09-16T12:31:31.380Z,14.30
2022-09-16T12:34:12.168Z,14.20
2022-09-16T12:36:42.251Z,14.30
2022-09-16T12:39:11.371Z,14.30
2022-09-16T12:41:56.143Z,14.30
2022-09-16T12:44:51.957Z,14.30
2022-09-16T12:50:07.061Z,14.20
2022-09-16T12:53:04.173Z,14.20
2022-09-16T12:58:25.287Z,14.00
2022-09-16T13:01:25.273Z,14.20
2022-09-16T13:04:14.729Z,14.00
2022-09-16T13:06:48.378Z,14.20
2022-09-16T13:09:25.661Z,14.10
2022-09-16T13:14:58.591Z,14.40
2022-09-16T13:17:28.359Z,14.10
2022-09-16T13:19:58.446Z,14.20
2022-09-16T13:22:31.570Z,14.20
2022-09-16T13:25:20.246Z,14.10
2022-09-16T13:27:58.240Z,14.00
2022-09-16T13:30:30.197Z,13.70
2022-09-16T13:33:11.543Z,14.00
2022-09-16T13:35:44.087Z,14.10
2022-09-16T13:38:19.844Z,14.10
2022-09-16T13:40:57.810Z,14.00
2022-09-16T13:43:42.640Z,13.90
2022-09-16T13:46:16.858Z,13.90
2022-09-16T13:49:11.827Z,13.90
2022-09-16T13:51:44.575Z,13.90
2022-09-16T13:54:28.446Z,14.10
2022-09-16T13:57:12.601Z,14.30
2022-09-16T14:00:06.131Z,14.00
2022-09-16T14:02:48.863Z,14.30
2022-09-16T14:05:39.649Z,14.30
2022-09-16T14:08:29.470Z,14.20
2022-09-16T14:11:06.647Z,14.30
2022-09-16T14:13:40.429Z,14.40
2022-09-16T14:16:21.111Z,14.40
2022-09-16T14:18:55.731Z,14.20
2022-09-16T14:21:24.779Z,14.20
2022-09-16T14:26:23.890Z,14.20
2022-09-16T14:31:26.196Z,14.20
2022-09-16T14:34:00.741Z,14.20
2022-09-16T14:36:37.943Z,14.30
2022-09-16T14:39:12.018Z,14.20
2022-09-16T14:41:47.649Z,14.30
2022-09-16T14:44:20.414Z,14.20
2022-09-16T14:47:07.481Z,14.00
2022-09-16T14:49:38.418Z,14.20
2022-09-16T14:57:03.815Z,14.30
2022-09-16T14:59:33.010Z,14.30
2022-09-16T15:02:04.308Z,14.30
2022-09-16T15:04:36.462Z,14.40
2022-09-16T15:07:14.217Z,14.40
2022-09-16T15:09:57.541Z,14.30
2022-09-16T15:12:29.204Z,14.30
2022-09-16T15:17:26.616Z,14.50
2022-09-16T15:19:59.211Z,14.50
2022-09-16T15:22:27.630Z,14.50
2022-09-16T15:24:58.531Z,14.60
2022-09-16T15:27:28.935Z,14.70
2022-09-16T15:30:01.527Z,14.70
2022-09-16T15:32:31.930Z,14.70
2022-09-16T15:35:26.051Z,14.60
2022-09-16T15:37:54.404Z,14.70
2022-09-16T15:40:27.479Z,14.80
2022-09-16T15:43:40.152Z,14.80
2022-09-16T15:46:16.352Z,14.70
2022-09-16T15:48:46.791Z,14.80
2022-09-16T15:51:39.516Z,14.80
2022-09-16T15:54:31.297Z,14.70
2022-09-16T15:57:09.670Z,14.40
2022-09-16T15:59:44.738Z,14.50
2022-09-16T16:02:26.635Z,14.40
2022-09-16T16:07:47.326Z,14.30
2022-09-16T16:10:25.712Z,14.20
2022-09-16T16:12:54.556Z,14.10
2022-09-16T16:15:24.727Z,14.10
2022-09-16T16:17:53.542Z,14.00
2022-09-16T16:20:21.855Z,14.10
2022-09-16T16:25:16.992Z,14.00
2022-09-16T16:27:44.466Z,14.00
2022-09-16T16:45:13.411Z,13.90
2022-09-16T17:49:19.081Z,13.40
2022-09-16T17:56:42.930Z,13.30
2022-09-16T17:59:11.268Z,13.20
2022-09-16T18:01:38.852Z,13.30
2022-09-16T18:06:39.333Z,13.00
2022-09-16T18:09:07.391Z,12.80
2022-09-16T18:11:35.350Z,13.00
2022-09-16T18:14:04.091Z,13.00
2022-09-16T18:19:01.288Z,12.90
2022-09-16T18:23:58.186Z,12.90
2022-09-16T18:26:26.038Z,12.80
2022-09-16T18:31:48.205Z,12.80
2022-09-16T18:34:16.900Z,12.80
2022-09-16T18:39:16.684Z,12.60
2022-09-16T18:41:45.166Z,12.70
2022-09-16T18:44:15.527Z,12.70
2022-09-16T18:49:12.994Z,12.70
2022-09-16T18:51:49.893Z,12.80
2022-09-16T18:54:28.553Z,12.80
2022-09-16T18:59:27.712Z,12.70
2022-09-16T19:01:57.358Z,12.50
2022-09-16T19:04:27.421Z,12.70
2022-09-16T19:06:58.756Z,12.70
2022-09-16T19:24:21.297Z,12.50
2022-09-16T19:26:49.636Z,12.50
2022-09-16T19:29:19.956Z,12.50
2022-09-16T19:31:48.964Z,12.50
2022-09-16T19:34:16.704Z,12.60
2022-09-16T19:39:12.172Z,12.60
2022-09-16T19:41:40.419Z,12.50
2022-09-16T19:44:11.378Z,12.40
2022-09-16T19:46:39.538Z,12.40
2022-09-16T19:49:08.417Z,12.30
2022-09-16T19:56:33.118Z,12.20
2022-09-16T19:59:01.612Z,12.20
2022-09-16T20:01:34.251Z,12.10
2022-09-16T20:04:03.448Z,12.10
2022-09-16T20:06:36.756Z,12.10
2022-09-16T20:09:06.663Z,11.80
2022-09-16T20:11:36.767Z,12.00
2022-09-16T20:14:13.631Z,12.00
2022-09-16T20:19:11.851Z,12.10
2022-09-16T20:24:08.059Z,12.00
2022-09-16T20:26:36.130Z,12.00
2022-09-16T20:29:04.234Z,12.10
2022-09-16T20:31:33.568Z,12.10
2022-09-16T20:38:59.720Z,12.00
2022-09-16T20:41:28.987Z,11.90
2022-09-16T20:43:56.654Z,11.80
2022-09-16T20:46:29.311Z,11.80
2022-09-16T20:48:57.576Z,11.80
2022-09-16T20:51:29.549Z,11.80
2022-09-16T20:54:09.102Z,11.70
2022-09-16T20:56:41.126Z,11.70
2022-09-16T20:59:10.066Z,11.70
2022-09-16T21:01:38.452Z,11.70
2022-09-16T21:04:13.182Z,11.60
2022-09-16T21:09:11.502Z,11.80
2022-09-16T21:14:12.371Z,11.80
2022-09-16T21:19:09.949Z,11.80
2022-09-16T21:21:38.997Z,11.70
2022-09-16T21:26:35.769Z,11.70
2022-09-16T21:29:11.378Z,11.60
2022-09-16T21:31:40.948Z,11.50
2022-09-16T21:34:18.874Z,11.40
2022-09-16T21:39:14.418Z,11.40
2022-09-16T21:46:41.472Z,11.30
2022-09-16T21:49:23.233Z,11.30
2022-09-16T21:51:51.754Z,11.40
2022-09-16T21:56:48.542Z,11.30
2022-09-16T22:01:42.687Z,11.30
2022-09-16T22:04:15.401Z,11.30
2022-09-16T22:11:39.496Z,11.30
2022-09-16T22:16:37.497Z,11.30
2022-09-16T22:19:11.223Z,11.20
2022-09-16T22:21:41.486Z,11.30
2022-09-16T22:29:06.121Z,11.20
2022-09-16T22:31:35.976Z,11.20
2022-09-16T22:36:33.437Z,11.10
2022-09-16T22:39:04.402Z,11.10
2022-09-16T22:46:28.591Z,11.00
2022-09-16T22:48:57.051Z,11.00
2022-09-16T22:56:27.031Z,10.90
2022-09-16T22:58:55.203Z,10.70
2022-09-16T23:01:25.099Z,10.90
2022-09-16T23:03:54.778Z,10.90
2022-09-16T23:06:24.358Z,10.70
2022-09-16T23:08:52.216Z,10.90
2022-09-16T23:11:21.486Z,10.80
2022-09-16T23:16:23.844Z,10.70
2022-09-16T23:21:20.359Z,10.60
2022-09-16T23:23:52.641Z,10.40
2022-09-16T23:26:22.044Z,10.40
2022-09-16T23:28:54.415Z,10.50
2022-09-16T23:31:23.579Z,10.50
2022-09-16T23:36:18.565Z,10.50
2022-09-16T23:41:21.956Z,10.40
2022-09-16T23:43:50.020Z,10.20
2022-09-16T23:46:19.635Z,10.20
2022-09-16T23:48:47.407Z,10.40
2022-09-16T23:56:14.065Z,10.40
2022-09-16T23:58:42.222Z,10.40
